createdAt,value
2019-03-04T00:02:20.167Z,78.40
2019-03-04T00:04:47.587Z,78.67
2019-03-04T00:07:15.051Z,78.25
2019-03-04T00:09:42.543Z,78.84
2019-03-04T00:12:09.995Z,78.31
2019-03-04T00:14:37.466Z,77.98
2019-03-04T00:17:04.937Z,78.09
2019-03-04T00:19:32.394Z,77.84
2019-03-04T00:21:59.849Z,77.91
2019-03-04T00:24:27.303Z,78.08
2019-03-04T00:26:54.773Z,77.92
2019-03-04T00:29:22.232Z,78.23
2019-03-04T00:31:49.669Z,77.64
2019-03-04T00:34:17.157Z,78.15
2019-03-04T00:36:44.599Z,79.26
2019-03-04T00:39:12.100Z,80.21
2019-03-04T00:41:39.606Z,81.31
2019-03-04T00:44:07.029Z,81.13
2019-03-04T00:46:35.002Z,81.48
2019-03-04T00:49:04.022Z,81.40
2019-03-04T00:51:31.646Z,81.34
2019-03-04T00:53:59.146Z,81.49
2019-03-04T00:56:26.623Z,81.15
2019-03-04T00:58:54.067Z,80.61
2019-03-04T01:01:21.636Z,80.59
2019-03-04T01:03:49.147Z,80.06
2019-03-04T01:06:16.601Z,79.60
2019-03-04T01:08:45.107Z,79.19
2019-03-04T01:11:12.626Z,78.78
2019-03-04T01:13:40.108Z,78.34
2019-03-04T01:16:07.551Z,77.79
2019-03-04T01:18:35.025Z,77.48
2019-03-04T01:21:02.468Z,77.26
2019-03-04T01:23:30.001Z,77.10
2019-03-04T01:25:57.481Z,76.64
2019-03-04T01:28:24.942Z,76.43
2019-03-04T01:30:52.405Z,76.25
2019-03-04T01:33:19.871Z,76.04
2019-03-04T01:35:47.415Z,75.86
2019-03-04T01:38:15.695Z,75.61
2019-03-04T01:40:43.187Z,75.25
2019-03-04T01:43:10.608Z,74.84
2019-03-04T01:45:38.137Z,74.93
2019-03-04T01:48:05.579Z,74.81
2019-03-04T01:50:33.063Z,74.46
2019-03-04T01:53:00.539Z,74.54
2019-03-04T01:55:28.006Z,74.41
2019-03-04T01:57:57.160Z,74.72
2019-03-04T02:00:24.683Z,74.35
2019-03-04T02:02:52.192Z,74.22
2019-03-04T02:05:19.662Z,74.15
2019-03-04T02:07:47.117Z,74.56
2019-03-04T02:10:18.495Z,74.56
2019-03-04T02:12:46.239Z,74.62
2019-03-04T02:15:13.767Z,74.60
2019-03-04T02:17:41.244Z,74.72
2019-03-04T02:20:09.593Z,74.73
2019-03-04T02:22:37.091Z,74.74
2019-03-04T02:25:04.602Z,74.68
2019-03-04T02:27:32.064Z,74.84
2019-03-04T02:29:59.601Z,74.75
2019-03-04T02:32:27.064Z,74.97
2019-03-04T02:34:54.513Z,75.30
2019-03-04T02:37:22.966Z,75.42
2019-03-04T02:39:50.429Z,75.62
2019-03-04T02:42:17.879Z,75.73
2019-03-04T02:44:45.368Z,75.73
2019-03-04T02:47:12.822Z,75.66
2019-03-04T02:49:40.327Z,75.58
2019-03-04T02:52:07.777Z,75.65
2019-03-04T02:54:35.235Z,75.79
2019-03-04T02:57:02.746Z,75.85
2019-03-04T02:59:30.214Z,75.17
2019-03-04T03:01:57.679Z,75.02
2019-03-04T03:04:25.194Z,74.40
2019-03-04T03:06:52.618Z,74.15
2019-03-04T03:09:20.076Z,74.12
2019-03-04T03:11:47.543Z,73.90
2019-03-04T03:14:15.019Z,73.55
2019-03-04T03:16:42.482Z,73.05
2019-03-04T03:19:09.960Z,73.28
2019-03-04T03:21:37.480Z,72.91
2019-03-04T03:24:04.949Z,72.74
2019-03-04T03:26:32.405Z,73.04
2019-03-04T03:28:59.898Z,72.45
2019-03-04T03:31:27.369Z,72.80
2019-03-04T03:33:54.845Z,71.76
2019-03-04T03:36:22.308Z,72.00
2019-03-04T03:38:49.827Z,71.46
2019-03-04T03:41:18.496Z,71.44
2019-03-04T03:43:45.955Z,70.86
2019-03-04T03:46:13.402Z,70.55
2019-03-04T03:48:40.888Z,70.04
2019-03-04T03:51:08.344Z,69.60
2019-03-04T03:53:35.771Z,69.11
2019-03-04T03:56:03.228Z,68.42
2019-03-04T03:58:30.706Z,68.54
2019-03-04T04:00:58.179Z,68.52
2019-03-04T04:03:25.625Z,68.83
2019-03-04T04:05:53.091Z,68.48
2019-03-04T04:08:20.529Z,68.85
2019-03-04T04:10:49.027Z,69.16
2019-03-04T04:13:16.560Z,69.09
2019-03-04T04:15:44.045Z,68.89
2019-03-04T04:18:11.504Z,68.97
2019-03-04T04:20:38.943Z,69.30
2019-03-04T04:23:06.419Z,68.83
2019-03-04T04:25:33.893Z,68.82
2019-03-04T04:28:02.530Z,68.40
2019-03-04T04:30:32.048Z,68.68
2019-03-04T04:32:59.521Z,68.57
2019-03-04T04:35:26.951Z,69.04
2019-03-04T04:37:54.387Z,68.92
2019-03-04T04:40:21.834Z,68.48
2019-03-04T04:42:49.702Z,69.05
2019-03-04T04:45:17.156Z,68.21
2019-03-04T04:47:44.614Z,67.77
2019-03-04T04:50:15.442Z,67.42
2019-03-04T04:52:42.891Z,66.43
2019-03-04T04:55:10.360Z,66.47
2019-03-04T04:57:37.826Z,66.23
2019-03-04T05:00:07.171Z,66.17
2019-03-04T05:02:34.639Z,65.75
2019-03-04T05:05:02.149Z,65.74
2019-03-04T05:07:29.613Z,65.51
2019-03-04T05:09:57.035Z,65.67
2019-03-04T05:12:24.478Z,65.43
2019-03-04T05:14:51.961Z,65.47
2019-03-04T05:17:20.310Z,65.09
2019-03-04T05:19:47.752Z,65.81
2019-03-04T05:22:15.233Z,65.21
2019-03-04T05:24:42.706Z,65.58
2019-03-04T05:27:10.156Z,65.62
2019-03-04T05:29:37.595Z,65.33
2019-03-04T05:32:05.020Z,65.26
2019-03-04T05:34:32.491Z,65.63
2019-03-04T05:36:59.942Z,65.57
2019-03-04T05:39:27.400Z,66.29
2019-03-04T05:41:54.871Z,66.24
2019-03-04T05:44:22.322Z,66.48
2019-03-04T05:46:50.825Z,66.45
2019-03-04T05:49:18.319Z,66.63
2019-03-04T05:51:45.736Z,66.30
2019-03-04T05:54:13.194Z,66.61
2019-03-04T05:56:40.628Z,66.82
2019-03-04T05:59:08.102Z,66.79
2019-03-04T06:01:35.579Z,66.86
2019-03-04T06:04:03.050Z,66.96
2019-03-04T06:06:36.234Z,67.17
2019-03-04T06:09:03.752Z,66.89
2019-03-04T06:11:31.224Z,67.74
2019-03-04T06:13:58.664Z,67.06
2019-03-04T06:16:26.107Z,67.46
2019-03-04T06:18:53.574Z,67.49
2019-03-04T06:21:21.596Z,68.23
2019-03-04T06:23:49.050Z,86.21
2019-03-04T06:26:16.470Z,86.76
2019-03-04T06:28:43.957Z,87.60
2019-03-04T06:31:11.422Z,88.28
2019-03-04T06:33:38.883Z,88.72
2019-03-04T06:36:06.318Z,89.91
2019-03-04T06:38:33.754Z,90.88
2019-03-04T06:41:01.222Z,90.51
2019-03-04T06:43:28.696Z,91.58
2019-03-04T06:45:56.657Z,92.69
2019-03-04T06:48:24.078Z,92.52
2019-03-04T06:50:52.245Z,92.77
2019-03-04T06:53:34.568Z,91.95
2019-03-04T06:56:04.556Z,91.00
2019-03-04T06:58:32.062Z,91.11
2019-03-04T07:00:59.532Z,89.86
2019-03-04T07:03:27.025Z,88.36
2019-03-04T07:05:54.456Z,86.06
2019-03-04T07:11:31.090Z,83.85
2019-03-04T07:13:58.554Z,81.71
2019-03-04T07:16:26.015Z,81.69
2019-03-04T07:18:54.557Z,80.99
2019-03-04T07:21:22.757Z,80.60
2019-03-04T07:23:50.261Z,80.02
2019-03-04T07:26:17.740Z,79.09
2019-03-04T07:28:45.212Z,79.54
2019-03-04T07:31:13.882Z,80.02
2019-03-04T07:33:41.299Z,79.51
2019-03-04T07:36:08.758Z,78.56
2019-03-04T07:38:40.574Z,78.30
2019-03-04T07:41:08.046Z,77.24
2019-03-04T07:43:35.490Z,77.01
2019-03-04T07:46:02.941Z,77.07
2019-03-04T07:48:30.399Z,75.43
2019-03-04T07:50:57.845Z,76.15
2019-03-04T07:53:25.265Z,76.39
2019-03-04T07:55:53.314Z,75.57
2019-03-04T07:58:20.744Z,75.95
2019-03-04T08:00:49.946Z,75.14
2019-03-04T08:03:18.097Z,75.38
2019-03-04T08:05:45.575Z,74.02
2019-03-04T08:08:13.046Z,74.21
2019-03-04T08:10:50.149Z,74.16
2019-03-04T08:13:18.506Z,73.45
2019-03-04T08:15:46.002Z,72.85
2019-03-04T08:18:13.454Z,71.45
2019-03-04T08:20:40.914Z,70.34
2019-03-04T08:23:10.028Z,70.38
2019-03-04T08:25:35.876Z,70.02
2019-03-04T08:28:03.345Z,69.97
2019-03-04T08:30:30.838Z,70.17
2019-03-04T08:32:58.276Z,68.50
2019-03-04T08:35:25.737Z,68.79
2019-03-04T08:37:54.076Z,68.90
2019-03-04T08:40:21.573Z,67.79
2019-03-04T08:42:49.885Z,68.42
2019-03-04T08:45:18.341Z,66.99
2019-03-04T08:47:45.804Z,67.02
2019-03-04T08:50:13.919Z,67.77
2019-03-04T08:52:41.427Z,67.85
2019-03-04T08:55:09.686Z,67.25
2019-03-04T08:57:37.182Z,67.97
2019-03-04T09:00:08.097Z,67.70
2019-03-04T09:02:35.580Z,67.82
2019-03-04T09:05:03.031Z,67.81
2019-03-04T09:07:30.485Z,68.04
2019-03-04T09:09:57.938Z,68.39
2019-03-04T09:12:25.400Z,67.59
2019-03-04T09:14:52.838Z,67.91
2019-03-04T09:17:20.284Z,65.96
2019-03-04T09:19:47.735Z,66.17
2019-03-04T09:22:15.207Z,66.20
2019-03-04T09:24:42.632Z,66.48
2019-03-04T09:27:10.098Z,66.29
2019-03-04T09:29:37.566Z,65.91
2019-03-04T09:32:05.077Z,65.34
2019-03-04T09:34:32.546Z,65.62
2019-03-04T09:36:59.982Z,64.95
2019-03-04T09:42:07.668Z,65.34
2019-03-04T09:44:35.132Z,65.91
2019-03-04T09:47:02.597Z,65.82
2019-03-04T09:49:30.028Z,66.81
2019-03-04T09:51:57.482Z,68.25
2019-03-04T09:54:25.662Z,68.96
2019-03-04T09:56:54.169Z,68.26
2019-03-04T09:59:21.698Z,68.15
2019-03-04T10:01:49.187Z,69.38
2019-03-04T10:04:22.461Z,69.82
2019-03-04T10:06:58.195Z,69.98
2019-03-04T10:09:32.577Z,68.17
2019-03-04T10:12:15.521Z,68.51
2019-03-04T10:15:07.992Z,68.64
2019-03-04T10:17:43.843Z,69.22
2019-03-04T10:20:27.032Z,68.02
2019-03-04T10:23:05.145Z,68.36
2019-03-04T10:25:38.456Z,66.77
2019-03-04T10:28:11.720Z,66.78
2019-03-04T10:30:48.604Z,66.96
2019-03-04T10:33:17.454Z,68.10
2019-03-04T10:36:05.799Z,70.56
2019-03-04T10:38:38.799Z,71.90
2019-03-04T10:41:21.908Z,71.24
2019-03-04T10:44:06.815Z,71.22
2019-03-04T10:46:50.778Z,69.60
2019-03-04T10:49:18.262Z,69.45
2019-03-04T10:51:45.722Z,70.75
2019-03-04T10:54:13.939Z,71.67
2019-03-04T10:56:42.417Z,72.52
2019-03-04T10:59:08.981Z,73.56
2019-03-04T11:01:36.443Z,74.87
2019-03-04T11:04:03.906Z,74.79
2019-03-04T11:06:31.370Z,73.60
2019-03-04T11:08:58.847Z,73.15
2019-03-04T11:11:30.030Z,72.38
2019-03-04T11:13:55.252Z,73.47
2019-03-04T11:16:22.718Z,73.61
2019-03-04T11:18:50.168Z,72.21
2019-03-04T11:21:17.647Z,73.38
2019-03-04T11:23:45.124Z,72.27
2019-03-04T11:26:12.583Z,74.78
2019-03-04T11:28:40.007Z,84.09
2019-03-04T11:31:07.464Z,88.70
2019-03-04T11:33:34.923Z,90.31
2019-03-04T11:36:02.462Z,90.58
2019-03-04T11:38:39.896Z,90.87
2019-03-04T11:41:08.275Z,91.45
2019-03-04T11:43:35.992Z,92.00
2019-03-04T11:46:03.440Z,92.24
2019-03-04T11:48:30.918Z,92.65
2019-03-04T11:50:58.369Z,93.30
2019-03-04T11:53:27.024Z,94.12
2019-03-04T11:55:54.485Z,93.85
2019-03-04T11:58:21.925Z,93.47
2019-03-04T12:01:05.070Z,93.37
2019-03-04T12:03:32.516Z,93.95
2019-03-04T12:06:00.977Z,94.08
2019-03-04T12:08:28.462Z,94.12
2019-03-04T12:10:55.928Z,94.61
2019-03-04T12:13:23.386Z,94.62
2019-03-04T12:15:50.834Z,94.80
2019-03-04T12:18:18.294Z,94.46
2019-03-04T12:20:45.746Z,94.70
2019-03-04T12:23:13.272Z,94.21
2019-03-04T12:25:40.715Z,94.11
2019-03-04T12:28:08.196Z,93.27
2019-03-04T12:30:35.649Z,93.25
2019-03-04T12:33:03.094Z,92.69
2019-03-04T12:35:30.515Z,91.60
2019-03-04T12:37:58.660Z,90.99
2019-03-04T12:40:26.079Z,90.39
2019-03-04T12:42:53.554Z,89.74
2019-03-04T12:45:21.014Z,89.22
2019-03-04T12:47:49.941Z,89.20
2019-03-04T12:50:23.805Z,88.23
2019-03-04T12:52:51.273Z,88.35
2019-03-04T12:55:18.685Z,88.67
2019-03-04T12:57:46.125Z,88.50
2019-03-04T13:00:15.522Z,88.89
2019-03-04T13:02:43.052Z,88.36
2019-03-04T13:05:10.499Z,88.31
2019-03-04T13:07:37.944Z,86.84
2019-03-04T13:10:06.159Z,87.20
2019-03-04T13:12:33.585Z,87.33
2019-03-04T13:15:01.025Z,87.17
2019-03-04T13:17:29.226Z,87.19
2019-03-04T13:19:56.693Z,87.35
2019-03-04T13:22:25.652Z,86.70
2019-03-04T13:24:53.233Z,86.48
2019-03-04T13:27:23.778Z,85.48
2019-03-04T13:29:49.163Z,85.52
2019-03-04T13:32:17.609Z,85.03
2019-03-04T13:34:48.462Z,85.06
2019-03-04T13:37:17.201Z,84.48
2019-03-04T13:39:45.666Z,84.60
2019-03-04T13:42:13.180Z,85.44
2019-03-04T13:44:40.623Z,84.29
2019-03-04T13:47:08.058Z,84.15
2019-03-04T13:49:36.638Z,84.02
2019-03-04T13:52:04.197Z,83.95
2019-03-04T13:54:31.647Z,83.83
2019-03-04T13:56:59.108Z,83.25
2019-03-04T13:59:26.610Z,83.04
2019-03-04T14:01:54.060Z,82.11
2019-03-04T14:04:21.525Z,81.39
2019-03-04T14:06:48.942Z,80.99
2019-03-04T14:09:16.397Z,80.70
2019-03-04T14:11:43.854Z,80.71
2019-03-04T14:16:42.524Z,80.23
2019-03-04T14:19:09.997Z,79.96
2019-03-04T14:21:37.447Z,78.68
2019-03-04T14:24:04.910Z,77.90
2019-03-04T14:26:32.362Z,77.09
2019-03-04T14:28:59.818Z,75.50
2019-03-04T14:31:27.444Z,73.15
2019-03-04T14:33:54.902Z,72.73
2019-03-04T14:36:22.354Z,73.05
2019-03-04T14:38:49.923Z,72.61
2019-03-04T14:41:17.347Z,71.42
2019-03-04T14:43:44.797Z,71.41
2019-03-04T14:46:12.242Z,71.95
2019-03-04T14:48:41.715Z,72.40
2019-03-04T14:51:09.218Z,72.47
2019-03-04T14:53:36.631Z,72.52
2019-03-04T14:56:04.079Z,71.29
2019-03-04T14:58:31.531Z,69.54
2019-03-04T15:00:59.007Z,67.01
2019-03-04T15:03:26.448Z,66.55
2019-03-04T15:05:53.881Z,64.76
2019-03-04T15:08:21.329Z,64.28
2019-03-04T15:10:48.777Z,64.52
2019-03-04T15:13:16.195Z,64.77
2019-03-04T15:15:43.630Z,64.58
2019-03-04T15:18:11.108Z,63.73
2019-03-04T15:20:38.542Z,62.13
2019-03-04T15:23:05.996Z,61.64
2019-03-04T15:25:36.126Z,62.00
2019-03-04T15:28:11.018Z,60.35
2019-03-04T15:30:38.456Z,60.27
2019-03-04T15:33:05.905Z,59.17
2019-03-04T15:35:33.370Z,59.49
2019-03-04T15:38:01.243Z,58.92
2019-03-04T15:40:28.707Z,59.04
2019-03-04T15:42:56.149Z,59.60
2019-03-04T15:45:23.579Z,59.19
2019-03-04T15:47:51.041Z,58.98
2019-03-04T15:50:18.462Z,58.91
2019-03-04T15:52:45.909Z,59.77
2019-03-04T15:55:13.354Z,59.87
2019-03-04T15:57:42.241Z,60.89
2019-03-04T16:00:12.609Z,60.09
2019-03-04T16:02:40.084Z,61.40
2019-03-04T16:05:07.513Z,61.08
2019-03-04T16:07:34.984Z,60.94
2019-03-04T16:10:02.435Z,61.39
2019-03-04T16:12:30.605Z,61.54
2019-03-04T16:14:58.115Z,60.93
2019-03-04T16:17:25.897Z,61.23
2019-03-04T16:19:53.339Z,61.01
2019-03-04T16:22:20.828Z,60.75
2019-03-04T16:24:49.209Z,61.06
2019-03-04T16:27:15.710Z,60.92
2019-03-04T16:29:43.168Z,60.94
2019-03-04T16:32:10.591Z,60.71
2019-03-04T16:34:38.060Z,61.01
2019-03-04T16:37:05.514Z,60.58
2019-03-04T16:39:32.996Z,61.38
2019-03-04T16:42:00.476Z,61.25
2019-03-04T16:44:27.910Z,60.71
2019-03-04T16:46:55.341Z,60.75
2019-03-04T16:49:22.776Z,60.49
2019-03-04T16:51:50.254Z,60.69
2019-03-04T16:54:17.705Z,60.40
2019-03-04T16:56:45.137Z,59.95
2019-03-04T16:59:12.589Z,60.06
2019-03-04T17:01:40.047Z,59.71
2019-03-04T17:04:07.494Z,59.99
2019-03-04T17:06:35.231Z,58.92
2019-03-04T17:09:02.711Z,59.06
2019-03-04T17:11:30.133Z,58.19
2019-03-04T17:13:57.583Z,58.35
2019-03-04T17:16:24.991Z,58.46
2019-03-04T17:18:52.458Z,58.31
2019-03-04T17:21:19.871Z,58.38
2019-03-04T17:23:47.331Z,59.00
2019-03-04T17:26:14.814Z,58.95
2019-03-04T17:28:43.171Z,59.66
2019-03-04T17:31:10.603Z,59.93
2019-03-04T17:33:38.039Z,60.00
2019-03-04T17:36:05.715Z,59.91
2019-03-04T17:38:33.159Z,59.93
2019-03-04T17:41:00.613Z,60.23
2019-03-04T17:43:28.073Z,60.23
2019-03-04T17:45:55.534Z,60.79
2019-03-04T17:48:23.018Z,60.04
2019-03-04T17:50:50.469Z,60.54
2019-03-04T17:53:17.903Z,60.90
2019-03-04T17:55:45.358Z,60.72
2019-03-04T17:58:12.810Z,60.36
2019-03-04T18:00:40.267Z,60.43
2019-03-04T18:03:08.653Z,60.38
2019-03-04T18:05:36.251Z,60.47
2019-03-04T18:08:03.670Z,60.58
2019-03-04T18:10:31.088Z,60.20
2019-03-04T18:12:58.525Z,60.49
2019-03-04T18:15:35.570Z,61.06
2019-03-04T18:18:03.017Z,60.73
2019-03-04T18:20:34.377Z,60.31
2019-03-04T18:22:57.908Z,61.29
2019-03-04T18:25:33.956Z,60.68
2019-03-04T18:28:17.087Z,60.86
2019-03-04T18:30:45.220Z,60.61
2019-03-04T18:33:24.313Z,61.39
2019-03-04T18:35:53.288Z,61.04
2019-03-04T18:38:30.934Z,61.47
2019-03-04T18:41:27.255Z,61.85
2019-03-04T18:43:54.704Z,61.94
2019-03-04T18:46:31.716Z,62.30
2019-03-04T18:48:59.216Z,62.25
2019-03-04T18:51:26.701Z,62.66
2019-03-04T18:53:54.163Z,63.04
2019-03-04T18:56:22.251Z,63.19
2019-03-04T18:58:49.062Z,63.56
2019-03-04T19:01:16.520Z,64.04
2019-03-04T19:03:43.970Z,64.61
2019-03-04T19:06:11.419Z,64.16
2019-03-04T19:08:38.884Z,64.78
2019-03-04T19:11:07.413Z,65.16
2019-03-04T19:13:34.863Z,65.29
2019-03-04T19:16:02.291Z,65.36
2019-03-04T19:18:29.727Z,65.40
2019-03-04T19:20:57.213Z,65.46
2019-03-04T19:23:25.403Z,66.06
2019-03-04T19:25:52.889Z,65.68
2019-03-04T19:28:20.319Z,65.86
2019-03-04T19:30:47.792Z,65.83
2019-03-04T19:33:15.248Z,66.24
2019-03-04T19:35:42.699Z,66.18
2019-03-04T19:38:10.138Z,65.85
2019-03-04T19:40:37.943Z,66.17
2019-03-04T19:43:05.424Z,66.35
2019-03-04T19:45:32.853Z,66.61
2019-03-04T19:48:00.288Z,66.77
2019-03-04T19:50:27.721Z,67.02
2019-03-04T19:52:55.162Z,67.16
2019-03-04T19:55:22.603Z,67.17
2019-03-04T19:57:50.068Z,67.81
2019-03-04T20:00:19.319Z,68.02
2019-03-04T20:02:46.762Z,67.82
2019-03-04T20:05:14.232Z,67.99
2019-03-04T20:07:43.796Z,68.34
2019-03-04T20:10:09.124Z,68.08
2019-03-04T20:12:36.563Z,68.06
2019-03-04T20:15:04.049Z,67.98
2019-03-04T20:17:31.509Z,68.61
2019-03-04T20:19:58.922Z,68.74
2019-03-04T20:22:26.374Z,69.02
2019-03-04T20:24:53.811Z,69.11
2019-03-04T20:27:21.244Z,68.94
2019-03-04T20:29:48.761Z,69.08
2019-03-04T20:32:16.202Z,69.06
2019-03-04T20:34:43.652Z,69.34
2019-03-04T20:37:11.666Z,69.71
2019-03-04T20:39:39.161Z,70.21
2019-03-04T20:42:06.611Z,69.66
2019-03-04T20:44:34.077Z,69.78
2019-03-04T20:47:01.540Z,69.58
2019-03-04T20:49:28.955Z,69.85
2019-03-04T20:51:56.402Z,69.68
2019-03-04T20:54:23.837Z,69.61
2019-03-04T20:56:51.263Z,69.55
2019-03-04T20:59:18.722Z,71.29
2019-03-04T21:01:46.208Z,71.41
2019-03-04T21:04:13.635Z,71.28
2019-03-04T21:06:41.580Z,71.57
2019-03-04T21:09:09.016Z,71.26
2019-03-04T21:11:37.357Z,70.47
2019-03-04T21:14:04.867Z,70.49
2019-03-04T21:16:32.314Z,70.40
2019-03-04T21:18:59.751Z,70.12
2019-03-04T21:21:27.215Z,70.71
2019-03-04T21:23:54.639Z,71.77
2019-03-04T21:26:22.071Z,71.97
2019-03-04T21:29:04.121Z,73.60
2019-03-04T21:31:48.229Z,75.01
2019-03-04T21:34:21.453Z,80.45
2019-03-04T21:36:54.521Z,84.82
2019-03-04T21:39:27.354Z,85.10
2019-03-04T21:41:56.734Z,86.07
2019-03-04T21:44:36.118Z,86.66
2019-03-04T21:47:07.074Z,87.27
2019-03-04T21:49:34.558Z,87.73
2019-03-04T21:52:08.466Z,87.99
2019-03-04T21:54:35.891Z,88.38
2019-03-04T21:57:14.842Z,88.62
2019-03-04T21:59:42.319Z,89.02
2019-03-04T22:02:11.977Z,88.95
2019-03-04T22:04:39.538Z,89.12
2019-03-04T22:07:06.974Z,89.14
2019-03-04T22:09:34.509Z,89.37
2019-03-04T22:12:02.782Z,89.37
2019-03-04T22:14:30.217Z,89.46
2019-03-04T22:16:57.679Z,89.47
2019-03-04T22:19:25.170Z,89.42
2019-03-04T22:21:52.610Z,88.98
2019-03-04T22:24:20.062Z,89.09
2019-03-04T22:26:47.494Z,89.06
2019-03-04T22:29:14.969Z,89.06
2019-03-04T22:31:42.433Z,88.57
2019-03-04T22:34:09.881Z,88.55
2019-03-04T22:36:37.368Z,88.35
2019-03-04T22:39:04.850Z,87.83
2019-03-04T22:41:32.330Z,88.09
2019-03-04T22:44:00.506Z,88.01
2019-03-04T22:46:27.956Z,87.85
2019-03-04T22:48:55.428Z,87.65
2019-03-04T22:51:23.402Z,87.58
2019-03-04T22:53:50.875Z,87.62
2019-03-04T22:56:18.333Z,87.68
2019-03-04T22:58:45.780Z,87.63
2019-03-04T23:01:16.510Z,87.27
2019-03-04T23:03:43.942Z,87.06
2019-03-04T23:06:27.064Z,86.83
2019-03-04T23:08:54.510Z,86.83
2019-03-04T23:11:21.942Z,86.50
2019-03-04T23:14:04.452Z,86.56
2019-03-04T23:16:32.097Z,86.44
2019-03-04T23:18:59.535Z,85.80
2019-03-04T23:21:27.179Z,85.50
2019-03-04T23:23:55.427Z,84.85
2019-03-04T23:26:22.868Z,84.39
2019-03-04T23:28:50.320Z,84.00
2019-03-04T23:31:17.779Z,83.83
2019-03-04T23:33:45.204Z,83.26
2019-03-04T23:36:13.222Z,82.56
2019-03-04T23:38:40.662Z,82.40
2019-03-04T23:41:08.119Z,81.91
2019-03-04T23:43:35.562Z,81.93
2019-03-04T23:46:03.019Z,81.95
2019-03-04T23:48:30.477Z,81.56
2019-03-04T23:50:57.937Z,81.77
2019-03-04T23:53:25.412Z,81.46
2019-03-04T23:55:52.868Z,81.05
2019-03-04T23:58:20.313Z,81.10
